Time;durP1;ratioP1;P1;durP2;ratioP2;P2;SDS_P1;SDS_P2;PMS_P1;PMS_P2;Temp;Humidity;BMP_temperature;BMP_pressure;BME280_temperature;BME280_humidity;BME280_pressure;Samples;Min_cycle;Max_cycle;Signal;HPM_P1;HPM_P2
2023/07/29 00:00:56;;;;;;;11.23;10.43;;;;;;;;;;4990183;28;20058;-72
2023/07/29 00:03:21;;;;;;;11.07;10.27;;;;;;;;;;4988574;28;20050;-72
2023/07/29 00:05:48;;;;;;;11.20;10.30;;;;;;;;;;4984539;28;20393;-72
2023/07/29 00:08:13;;;;;;;11.02;10.20;;;;;;;;;;4989729;28;20097;-72
2023/07/29 00:10:40;;;;;;;10.93;10.10;;;;;;;;;;4989451;28;20041;-72
2023/07/29 00:13:05;;;;;;;10.20;9.30;;;;;;;;;;4986426;28;20602;-72
2023/07/29 00:15:31;;;;;;;10.40;9.70;;;;;;;;;;4989042;28;20418;-72
2023/07/29 00:17:57;;;;;;;10.68;9.65;;;;;;;;;;4987104;28;20034;-72
2023/07/29 00:20:23;;;;;;;10.70;9.80;;;;;;;;;;4986695;28;20096;-72
2023/07/29 00:22:53;;;;;;;10.30;9.60;;;;;;;;;;4985287;28;20037;-73
2023/07/29 00:25:19;;;;;;;10.32;9.52;;;;;;;;;;4990128;28;20166;-73
2023/07/29 00:27:45;;;;;;;10.25;9.55;;;;;;;;;;4990416;28;20558;-73
2023/07/29 00:30:11;;;;;;;10.80;9.90;;;;;;;;;;4987875;28;20066;-72
2023/07/29 00:32:37;;;;;;;11.00;10.13;;;;;;;;;;4983042;28;20038;-73
2023/07/29 00:35:02;;;;;;;10.40;9.70;;;;;;;;;;4990956;28;20045;-73
2023/07/29 00:37:30;;;;;;;10.60;9.90;;;;;;;;;;4987016;28;20041;-73
2023/07/29 00:39:56;;;;;;;10.55;9.85;;;;;;;;;;4985845;28;20145;-73
2023/07/29 00:42:22;;;;;;;9.90;9.30;;;;;;;;;;4986551;28;20034;-73
2023/07/29 00:44:47;;;;;;;9.98;9.38;;;;;;;;;;4991681;28;21592;-72
2023/07/29 00:47:15;;;;;;;9.75;9.02;;;;;;;;;;4987842;28;20026;-73
2023/07/29 00:49:42;;;;;;;9.68;9.07;;;;;;;;;;4984295;28;20057;-73
2023/07/29 00:52:11;;;;;;;8.95;8.45;;;;;;;;;;4988570;28;20034;-72
2023/07/29 00:54:36;;;;;;;9.73;8.80;;;;;;;;;;4987940;28;20089;-73
2023/07/29 00:57:03;;;;;;;9.75;8.85;;;;;;;;;;4985320;28;20042;-73
2023/07/29 00:59:30;;;;;;;9.48;8.88;;;;;;;;;;4987502;28;20041;-73
2023/07/29 01:01:57;;;;;;;9.23;8.70;;;;;;;;;;4985050;28;20082;-72
2023/07/29 01:04:23;;;;;;;9.07;8.50;;;;;;;;;;4988134;28;20037;-72
2023/07/29 01:07:14;;;;;;;9.10;8.60;;;;;;;;;;4987203;28;20045;-72
2023/07/29 01:10:03;;;;;;;9.80;9.20;;;;;;;;;;4986414;28;20042;-72
2023/07/29 01:12:54;;;;;;;10.05;9.45;;;;;;;;;;4986457;28;20038;-72
2023/07/29 01:15:23;;;;;;;10.07;9.32;;;;;;;;;;4983949;28;20046;-72
2023/07/29 01:18:13;;;;;;;10.05;9.35;;;;;;;;;;4987399;28;20034;-72
2023/07/29 01:20:41;;;;;;;9.20;8.60;;;;;;;;;;4986732;28;20035;-72
2023/07/29 01:23:07;;;;;;;9.00;8.40;;;;;;;;;;4988177;28;20117;-72
2023/07/29 01:25:34;;;;;;;9.82;8.80;;;;;;;;;;4985298;28;20406;-72
2023/07/29 01:28:00;;;;;;;10.40;9.65;;;;;;;;;;4985371;28;20044;-72
2023/07/29 01:30:41;;;;;;;9.15;8.55;;;;;;;;;;4986339;28;20594;-72
2023/07/29 01:33:12;;;;;;;10.05;9.25;;;;;;;;;;4979767;28;20113;-72
2023/07/29 01:35:48;;;;;;;9.75;9.00;;;;;;;;;;4983487;28;20038;-72
2023/07/29 01:38:20;;;;;;;9.50;8.82;;;;;;;;;;4985668;28;20030;-72
2023/07/29 01:40:49;;;;;;;9.20;8.60;;;;;;;;;;4983375;28;20054;-72
2023/07/29 01:43:15;;;;;;;9.80;9.02;;;;;;;;;;4985259;28;20060;-72
2023/07/29 01:45:40;;;;;;;10.18;9.15;;;;;;;;;;4986739;28;20502;-72
2023/07/29 01:48:07;;;;;;;9.10;8.50;;;;;;;;;;4984218;28;20038;-72
2023/07/29 01:50:33;;;;;;;10.07;9.40;;;;;;;;;;4982706;28;20057;-72
2023/07/29 01:53:00;;;;;;;9.75;9.00;;;;;;;;;;4987372;28;20084;-72
2023/07/29 01:55:26;;;;;;;9.85;9.05;;;;;;;;;;4985690;28;20030;-72
2023/07/29 01:57:52;;;;;;;10.10;9.20;;;;;;;;;;4982384;28;20043;-72
2023/07/29 02:00:19;;;;;;;9.63;8.80;;;;;;;;;;4984692;28;20084;-72
2023/07/29 02:02:45;;;;;;;10.60;9.55;;;;;;;;;;4982663;28;20518;-72
2023/07/29 02:05:11;;;;;;;10.68;9.70;;;;;;;;;;4984642;28;20101;-72
2023/07/29 02:07:36;;;;;;;10.10;9.30;;;;;;;;;;4982410;28;20684;-72
2023/07/29 02:10:02;;;;;;;10.07;9.38;;;;;;;;;;4985106;28;20486;-72
2023/07/29 02:12:28;;;;;;;10.18;9.48;;;;;;;;;;4984263;28;20108;-72
2023/07/29 02:14:54;;;;;;;9.70;9.00;;;;;;;;;;4983415;28;20502;-72
2023/07/29 02:17:20;;;;;;;9.32;8.68;;;;;;;;;;4986682;28;20036;-72
2023/07/29 02:19:46;;;;;;;9.38;8.57;;;;;;;;;;4981869;28;20101;-72
2023/07/29 02:22:17;;;;;;;9.52;8.82;;;;;;;;;;4983377;28;20046;-72
2023/07/29 02:24:43;;;;;;;9.55;8.75;;;;;;;;;;4985707;28;20042;-72
2023/07/29 02:27:09;;;;;;;9.10;8.40;;;;;;;;;;4986223;28;20042;-72
2023/07/29 02:29:35;;;;;;;9.77;8.98;;;;;;;;;;4976184;28;20045;-72
2023/07/29 02:32:01;;;;;;;10.20;9.35;;;;;;;;;;4985841;28;20112;-72
2023/07/29 02:34:26;;;;;;;10.90;9.82;;;;;;;;;;4988871;28;20038;-74
2023/07/29 02:36:53;;;;;;;10.60;9.75;;;;;;;;;;4984831;28;20045;-72
2023/07/29 02:39:19;;;;;;;10.85;9.98;;;;;;;;;;4984963;28;20074;-72
2023/07/29 02:41:44;;;;;;;10.80;9.90;;;;;;;;;;4984106;28;20406;-72
2023/07/29 02:44:10;;;;;;;11.85;10.60;;;;;;;;;;4986631;28;20057;-72
2023/07/29 02:46:35;;;;;;;11.25;10.38;;;;;;;;;;4985845;28;20034;-72
2023/07/29 02:49:03;;;;;;;10.40;9.60;;;;;;;;;;4981648;28;20041;-72
2023/07/29 02:51:29;;;;;;;10.70;9.90;;;;;;;;;;4983638;28;20030;-72
2023/07/29 02:53:55;;;;;;;11.63;10.68;;;;;;;;;;4984259;28;20044;-72
2023/07/29 02:56:20;;;;;;;10.48;9.68;;;;;;;;;;4985660;28;20030;-72
2023/07/29 02:58:46;;;;;;;10.40;9.50;;;;;;;;;;4984254;28;20038;-72
2023/07/29 03:01:12;;;;;;;10.30;9.60;;;;;;;;;;4985107;28;20039;-72
2023/07/29 03:03:38;;;;;;;9.57;8.88;;;;;;;;;;4983809;28;20041;-72
2023/07/29 03:06:08;;;;;;;9.40;8.63;;;;;;;;;;4982221;28;20455;-72
2023/07/29 03:08:35;;;;;;;9.85;9.02;;;;;;;;;;4978569;28;20038;-72
2023/07/29 03:11:12;;;;;;;9.30;8.48;;;;;;;;;;4982959;28;20030;-72
2023/07/29 03:13:37;;;;;;;9.70;8.90;;;;;;;;;;4980602;28;20042;-72
2023/07/29 03:16:14;;;;;;;9.00;8.40;;;;;;;;;;4979522;28;20101;-72
2023/07/29 03:18:44;;;;;;;9.45;8.82;;;;;;;;;;4979853;28;20498;-73
2023/07/29 03:21:10;;;;;;;9.30;8.70;;;;;;;;;;4982011;28;20667;-73
2023/07/29 03:23:38;;;;;;;9.15;8.45;;;;;;;;;;4985179;28;20034;-72
2023/07/29 03:26:09;;;;;;;9.15;8.38;;;;;;;;;;4984278;28;20057;-73
2023/07/29 03:28:37;;;;;;;9.00;8.40;;;;;;;;;;4985368;28;20053;-73
2023/07/29 03:31:03;;;;;;;9.90;9.10;;;;;;;;;;4984029;28;20069;-73
2023/07/29 03:33:29;;;;;;;10.57;9.75;;;;;;;;;;4989599;28;20494;-73
2023/07/29 03:35:55;;;;;;;9.90;9.10;;;;;;;;;;4985750;28;20042;-73
2023/07/29 03:38:20;;;;;;;9.65;8.95;;;;;;;;;;4984695;28;20041;-73
2023/07/29 03:40:46;;;;;;;9.57;8.98;;;;;;;;;;4985546;28;20065;-72
2023/07/29 03:43:12;;;;;;;9.23;8.43;;;;;;;;;;4988018;28;20030;-73
2023/07/29 03:45:40;;;;;;;9.63;9.02;;;;;;;;;;4983932;28;20045;-72
2023/07/29 03:48:06;;;;;;;9.20;8.50;;;;;;;;;;4985154;28;20668;-72
2023/07/29 03:50:35;;;;;;;9.38;8.57;;;;;;;;;;4985195;28;20046;-72
2023/07/29 03:53:04;;;;;;;;;;;;;;;;;;4988020;28;20034;-72
2023/07/29 03:55:31;;;;;;;9.68;8.57;;;;;;;;;;4985388;28;20400;-72
2023/07/29 03:58:02;;;;;;;9.07;8.48;;;;;;;;;;4985724;28;20525;-73
2023/07/29 04:00:28;;;;;;;9.52;8.80;;;;;;;;;;4984160;28;20054;-72
2023/07/29 04:02:54;;;;;;;9.48;8.77;;;;;;;;;;4986653;28;20034;-72
2023/07/29 04:05:20;;;;;;;8.95;8.25;;;;;;;;;;4987131;28;20410;-72
2023/07/29 04:07:46;;;;;;;9.43;8.82;;;;;;;;;;4989952;28;20061;-72
2023/07/29 04:10:11;;;;;;;9.60;8.90;;;;;;;;;;4986404;28;20109;-72
2023/07/29 04:12:38;;;;;;;9.80;9.20;;;;;;;;;;4988550;28;21361;-72
2023/07/29 04:15:04;;;;;;;9.82;9.02;;;;;;;;;;4989950;28;20514;-72
2023/07/29 04:17:30;;;;;;;10.18;9.27;;;;;;;;;;4989350;28;20042;-72
2023/07/29 04:19:56;;;;;;;9.05;8.45;;;;;;;;;;4985400;28;20092;-72
2023/07/29 04:22:26;;;;;;;9.32;8.73;;;;;;;;;;4988165;28;20434;-72
2023/07/29 04:24:51;;;;;;;9.88;9.00;;;;;;;;;;4987709;28;20030;-72
2023/07/29 04:27:17;;;;;;;9.50;8.77;;;;;;;;;;4988095;28;20069;-72
2023/07/29 04:29:42;;;;;;;10.00;9.30;;;;;;;;;;4985342;28;20038;-72
2023/07/29 04:32:08;;;;;;;10.57;9.80;;;;;;;;;;4990696;28;20042;-72
2023/07/29 04:34:34;;;;;;;10.02;9.32;;;;;;;;;;4995562;28;20049;-72
2023/07/29 04:36:59;;;;;;;9.88;9.18;;;;;;;;;;4988748;28;20042;-73
2023/07/29 04:39:26;;;;;;;9.93;9.13;;;;;;;;;;4982592;28;20038;-72
2023/07/29 04:41:52;;;;;;;10.60;9.70;;;;;;;;;;4990021;28;20034;-73
2023/07/29 04:44:17;;;;;;;10.65;9.80;;;;;;;;;;4987499;28;20402;-73
2023/07/29 04:46:44;;;;;;;12.43;11.32;;;;;;;;;;4986621;28;20033;-74
2023/07/29 04:49:09;;;;;;;12.38;11.20;;;;;;;;;;4988470;28;20034;-75
2023/07/29 04:51:37;;;;;;;12.40;11.25;;;;;;;;;;4987795;28;20506;-75
2023/07/29 04:54:02;;;;;;;12.55;11.25;;;;;;;;;;4985161;28;20033;-75
2023/07/29 04:56:28;;;;;;;14.13;12.38;;;;;;;;;;4985954;28;20573;-76
2023/07/29 04:58:53;;;;;;;17.67;12.20;;;;;;;;;;4985639;28;20098;-75
2023/07/29 05:01:19;;;;;;;13.07;11.77;;;;;;;;;;4985721;28;20046;-74
2023/07/29 05:03:45;;;;;;;13.95;12.65;;;;;;;;;;4987555;28;20053;-73
2023/07/29 05:06:11;;;;;;;14.60;13.38;;;;;;;;;;4987155;28;20041;-73
2023/07/29 05:08:36;;;;;;;15.13;13.43;;;;;;;;;;4985902;28;20057;-73
2023/07/29 05:11:02;;;;;;;14.88;12.93;;;;;;;;;;4986378;28;20042;-73
2023/07/29 05:13:28;;;;;;;14.90;13.23;;;;;;;;;;4986671;28;20038;-74
2023/07/29 05:15:54;;;;;;;14.63;13.38;;;;;;;;;;4987770;28;20216;-73
2023/07/29 05:18:20;;;;;;;16.65;14.93;;;;;;;;;;4986790;28;20068;-75
2023/07/29 05:20:47;;;;;;;14.82;13.63;;;;;;;;;;4986628;28;20105;-75
2023/07/29 05:23:13;;;;;;;14.18;13.07;;;;;;;;;;4989210;28;20034;-76
2023/07/29 05:25:39;;;;;;;14.98;13.68;;;;;;;;;;4987408;28;20038;-76
2023/07/29 05:28:05;;;;;;;14.18;13.07;;;;;;;;;;4986685;28;20465;-74
2023/07/29 05:30:33;;;;;;;13.48;12.48;;;;;;;;;;4986326;28;20477;-74
2023/07/29 05:33:00;;;;;;;13.67;12.67;;;;;;;;;;4987982;28;20085;-74
2023/07/29 05:35:25;;;;;;;14.13;12.73;;;;;;;;;;4983836;28;20034;-74
2023/07/29 05:37:51;;;;;;;14.48;13.38;;;;;;;;;;4986917;28;20030;-74
2023/07/29 05:40:18;;;;;;;13.60;12.43;;;;;;;;;;4989125;28;20058;-74
2023/07/29 05:42:45;;;;;;;13.93;12.73;;;;;;;;;;4985460;28;20434;-74
2023/07/29 05:45:11;;;;;;;13.60;12.55;;;;;;;;;;4985868;28;20100;-74
2023/07/29 05:47:37;;;;;;;13.13;12.02;;;;;;;;;;4990531;28;20030;-75
2023/07/29 05:50:04;;;;;;;13.30;12.40;;;;;;;;;;4986871;28;20117;-74
2023/07/29 05:52:31;;;;;;;13.40;12.40;;;;;;;;;;4985414;28;20034;-74
2023/07/29 05:54:56;;;;;;;13.02;12.02;;;;;;;;;;4986995;28;20079;-74
2023/07/29 05:57:22;;;;;;;13.65;12.55;;;;;;;;;;4986405;28;20061;-74
2023/07/29 05:59:48;;;;;;;13.90;12.65;;;;;;;;;;4988877;28;20038;-74
2023/07/29 06:02:13;;;;;;;66.35;13.85;;;;;;;;;;4988204;28;20435;-74
2023/07/29 06:04:39;;;;;;;22.15;14.00;;;;;;;;;;4985227;28;20029;-74
2023/07/29 06:07:07;;;;;;;15.20;13.35;;;;;;;;;;4989017;28;20125;-74
2023/07/29 06:09:33;;;;;;;13.13;12.23;;;;;;;;;;4972404;28;20038;-74
2023/07/29 06:11:58;;;;;;;13.73;12.48;;;;;;;;;;4982983;28;20402;-74
2023/07/29 06:14:24;;;;;;;14.75;13.15;;;;;;;;;;4987465;28;20074;-74
2023/07/29 06:16:49;;;;;;;12.68;11.77;;;;;;;;;;4987624;28;20067;-74
2023/07/29 06:19:15;;;;;;;13.43;12.43;;;;;;;;;;4984631;28;20057;-74
2023/07/29 06:21:42;;;;;;;13.68;12.77;;;;;;;;;;4985468;28;20046;-74
2023/07/29 06:24:07;;;;;;;14.05;13.15;;;;;;;;;;4986313;28;20169;-74
2023/07/29 06:26:33;;;;;;;13.40;12.30;;;;;;;;;;4988290;28;20081;-74
2023/07/29 06:28:58;;;;;;;13.15;11.77;;;;;;;;;;4986431;28;20034;-74
2023/07/29 06:31:24;;;;;;;12.48;11.57;;;;;;;;;;4983986;28;20033;-74
2023/07/29 06:33:50;;;;;;;12.55;11.75;;;;;;;;;;4985332;28;20046;-74
2023/07/29 06:36:15;;;;;;;13.18;12.15;;;;;;;;;;4987721;28;20674;-75
2023/07/29 06:38:41;;;;;;;12.93;11.80;;;;;;;;;;4986835;28;20034;-74
2023/07/29 06:41:07;;;;;;;12.93;11.75;;;;;;;;;;4985499;28;20045;-74
2023/07/29 06:43:33;;;;;;;12.65;11.70;;;;;;;;;;4988026;28;20414;-74
2023/07/29 06:45:58;;;;;;;13.20;12.05;;;;;;;;;;4986767;28;20034;-74
2023/07/29 06:48:24;;;;;;;13.35;12.30;;;;;;;;;;4985107;28;20395;-74
2023/07/29 06:50:54;;;;;;;13.75;12.75;;;;;;;;;;4989307;28;20041;-74
2023/07/29 06:53:21;;;;;;;12.88;11.88;;;;;;;;;;4986157;28;20572;-74
2023/07/29 06:55:46;;;;;;;12.85;11.77;;;;;;;;;;4988320;28;20041;-74
2023/07/29 06:58:12;;;;;;;13.13;12.23;;;;;;;;;;4990561;28;20034;-75
2023/07/29 07:00:38;;;;;;;12.90;11.85;;;;;;;;;;4991200;28;20117;-75
2023/07/29 07:03:04;;;;;;;14.18;13.18;;;;;;;;;;4988719;28;20092;-75
2023/07/29 07:05:29;;;;;;;13.05;12.15;;;;;;;;;;4987609;28;20046;-75
2023/07/29 07:07:55;;;;;;;13.32;12.18;;;;;;;;;;4990807;28;20034;-75
2023/07/29 07:10:20;;;;;;;13.50;12.40;;;;;;;;;;4987632;28;20042;-72
2023/07/29 07:12:46;;;;;;;13.20;12.20;;;;;;;;;;4989648;28;20033;-75
2023/07/29 07:15:12;;;;;;;13.40;12.18;;;;;;;;;;4989465;28;20497;-75
2023/07/29 07:17:37;;;;;;;13.75;12.52;;;;;;;;;;4989438;28;20034;-72
2023/07/29 07:20:03;;;;;;;13.23;12.05;;;;;;;;;;4989172;28;20030;-72
2023/07/29 07:22:29;;;;;;;12.48;11.32;;;;;;;;;;4991188;28;20064;-72
2023/07/29 07:24:54;;;;;;;12.63;11.30;;;;;;;;;;4985333;28;20042;-72
2023/07/29 07:27:20;;;;;;;11.80;11.10;;;;;;;;;;4990017;28;20037;-72
2023/07/29 07:29:45;;;;;;;12.38;11.48;;;;;;;;;;4987558;28;20034;-71
2023/07/29 07:32:11;;;;;;;13.27;12.32;;;;;;;;;;4988117;28;20030;-71
2023/07/29 07:34:37;;;;;;;13.32;11.85;;;;;;;;;;4987670;28;20099;-71
2023/07/29 07:37:04;;;;;;;12.25;11.35;;;;;;;;;;4988790;28;20500;-72
2023/07/29 07:39:30;;;;;;;11.90;11.10;;;;;;;;;;4990751;28;20435;-72
2023/07/29 07:41:55;;;;;;;12.05;11.18;;;;;;;;;;4987668;28;20046;-72
2023/07/29 07:44:21;;;;;;;11.32;10.30;;;;;;;;;;4987510;28;20045;-72
2023/07/29 07:46:46;;;;;;;11.35;10.52;;;;;;;;;;4989530;28;20395;-73
2023/07/29 07:49:13;;;;;;;11.70;11.00;;;;;;;;;;4984596;28;20076;-73
2023/07/29 07:51:39;;;;;;;11.88;11.07;;;;;;;;;;4990431;28;20181;-73
2023/07/29 07:54:04;;;;;;;11.57;10.77;;;;;;;;;;4992082;28;20415;-73
2023/07/29 07:56:30;;;;;;;11.35;10.65;;;;;;;;;;4986676;28;20038;-73
2023/07/29 07:58:56;;;;;;;11.50;10.70;;;;;;;;;;4987748;28;20114;-73
2023/07/29 08:01:21;;;;;;;11.38;10.68;;;;;;;;;;4988052;28;20035;-73
2023/07/29 08:03:47;;;;;;;11.55;10.85;;;;;;;;;;4988806;28;20038;-74
2023/07/29 08:06:13;;;;;;;11.75;11.02;;;;;;;;;;4986366;28;20060;-73
2023/07/29 08:08:38;;;;;;;12.60;11.55;;;;;;;;;;4986582;28;20091;-73
2023/07/29 08:11:04;;;;;;;12.30;11.30;;;;;;;;;;4988127;28;20038;-74
2023/07/29 08:13:29;;;;;;;12.93;11.23;;;;;;;;;;4987338;28;20121;-74
2023/07/29 08:15:55;;;;;;;12.38;11.52;;;;;;;;;;4986432;28;20057;-74
2023/07/29 08:18:21;;;;;;;12.50;11.70;;;;;;;;;;4987905;28;20076;-74
2023/07/29 08:20:58;;;;;;;11.90;11.10;;;;;;;;;;4988205;28;20451;-74
2023/07/29 08:23:27;;;;;;;12.82;11.93;;;;;;;;;;4986988;28;20124;-74
2023/07/29 08:25:56;;;;;;;12.82;11.75;;;;;;;;;;4984421;28;20038;-74
2023/07/29 08:28:24;;;;;;;12.63;11.70;;;;;;;;;;4982326;28;20041;-75
2023/07/29 08:30:49;;;;;;;13.27;12.18;;;;;;;;;;4984796;28;20046;-75
2023/07/29 08:33:15;;;;;;;12.98;12.07;;;;;;;;;;4983305;28;20077;-76
2023/07/29 08:35:41;;;;;;;14.05;12.60;;;;;;;;;;4985939;28;20121;-76
2023/07/29 08:38:06;;;;;;;12.65;11.60;;;;;;;;;;4982820;28;20054;-76
2023/07/29 08:40:35;;;;;;;12.52;11.30;;;;;;;;;;4984097;28;20402;-75
2023/07/29 08:43:04;;;;;;;12.23;11.25;;;;;;;;;;4983730;28;20026;-75
2023/07/29 08:45:33;;;;;;;;;;;;;;;;;;4984595;28;20073;-75
2023/07/29 08:48:00;;;;;;;12.23;11.32;;;;;;;;;;4984951;28;20012;-74
2023/07/29 08:50:26;;;;;;;12.25;11.50;;;;;;;;;;4986883;28;20042;-74
2023/07/29 08:52:52;;;;;;;12.40;11.40;;;;;;;;;;4982505;28;20041;-74
2023/07/29 08:55:19;;;;;;;12.80;11.77;;;;;;;;;;4983750;28;20455;-75
2023/07/29 08:57:45;;;;;;;12.82;11.82;;;;;;;;;;4986017;28;20144;-75
2023/07/29 09:00:12;;;;;;;12.13;11.32;;;;;;;;;;4984721;28;20042;-75
2023/07/29 09:02:37;;;;;;;11.85;10.90;;;;;;;;;;4982333;28;20494;-75
2023/07/29 09:05:03;;;;;;;11.85;11.05;;;;;;;;;;4987954;28;20030;-75
2023/07/29 09:07:29;;;;;;;12.27;11.25;;;;;;;;;;4986458;28;20042;-74
2023/07/29 09:09:55;;;;;;;11.57;10.88;;;;;;;;;;4980846;28;20151;-75
2023/07/29 09:12:21;;;;;;;11.63;10.82;;;;;;;;;;4981875;28;20076;-75
2023/07/29 09:14:46;;;;;;;10.95;10.15;;;;;;;;;;4986747;28;20034;-74
2023/07/29 09:17:12;;;;;;;11.75;10.90;;;;;;;;;;4983786;28;20461;-73
2023/07/29 09:19:38;;;;;;;11.32;10.63;;;;;;;;;;4984150;28;20034;-74
2023/07/29 09:22:03;;;;;;;11.07;10.38;;;;;;;;;;4987808;28;20042;-74
2023/07/29 09:24:32;;;;;;;11.70;10.90;;;;;;;;;;4984557;28;20375;-74
2023/07/29 09:26:57;;;;;;;11.05;10.30;;;;;;;;;;4984251;28;20034;-75
2023/07/29 09:29:26;;;;;;;11.73;10.88;;;;;;;;;;4982098;28;20108;-74
2023/07/29 09:31:51;;;;;;;11.20;10.50;;;;;;;;;;4985464;28;20033;-74
2023/07/29 09:34:17;;;;;;;10.65;10.05;;;;;;;;;;4984388;28;20574;-73
2023/07/29 09:36:43;;;;;;;10.05;9.38;;;;;;;;;;4983822;28;20042;-73
2023/07/29 09:39:15;;;;;;;9.93;9.30;;;;;;;;;;4985217;28;20044;-74
2023/07/29 09:41:41;;;;;;;10.15;9.48;;;;;;;;;;4983424;28;20042;-74
2023/07/29 09:44:07;;;;;;;10.07;9.27;;;;;;;;;;4981864;28;20101;-73
2023/07/29 09:46:36;;;;;;;10.00;9.30;;;;;;;;;;4950998;28;20678;-73
2023/07/29 09:49:04;;;;;;;10.35;9.65;;;;;;;;;;4954675;28;20046;-73
2023/07/29 09:51:29;;;;;;;10.30;9.60;;;;;;;;;;4982568;28;20482;-73
2023/07/29 09:53:55;;;;;;;11.60;10.88;;;;;;;;;;4971270;28;20041;-73
2023/07/29 09:56:29;;;;;;;11.00;10.30;;;;;;;;;;4951756;28;20084;-74
2023/07/29 09:58:58;;;;;;;9.35;8.82;;;;;;;;;;4950787;28;20042;-74
2023/07/29 10:01:24;;;;;;;9.88;9.23;;;;;;;;;;4981702;28;20372;-74
2023/07/29 10:03:50;;;;;;;10.77;10.07;;;;;;;;;;4984995;28;20117;-73
2023/07/29 10:06:17;;;;;;;10.18;9.38;;;;;;;;;;4984462;28;20090;-73
2023/07/29 10:08:43;;;;;;;10.77;9.98;;;;;;;;;;4984239;28;20034;-73
2023/07/29 10:11:11;;;;;;;10.30;9.60;;;;;;;;;;4983763;28;20030;-73
2023/07/29 10:13:38;;;;;;;9.88;9.27;;;;;;;;;;4967045;28;20057;-73
2023/07/29 10:16:04;;;;;;;10.48;9.77;;;;;;;;;;4983017;28;20072;-73
2023/07/29 10:18:32;;;;;;;10.32;9.63;;;;;;;;;;4981629;28;20046;-72
2023/07/29 10:21:00;;;;;;;10.70;10.00;;;;;;;;;;4984267;28;20030;-72
2023/07/29 10:23:27;;;;;;;10.18;9.48;;;;;;;;;;4983757;28;20038;-73
2023/07/29 10:26:04;;;;;;;10.57;9.88;;;;;;;;;;4982528;28;20582;-72
2023/07/29 10:28:31;;;;;;;10.32;9.73;;;;;;;;;;4995393;28;20056;-73
2023/07/29 10:30:58;;;;;;;10.82;10.13;;;;;;;;;;4982060;28;20117;-72
2023/07/29 10:33:24;;;;;;;10.20;9.50;;;;;;;;;;4984481;28;20038;-72
2023/07/29 10:35:50;;;;;;;10.23;9.30;;;;;;;;;;4984556;28;20081;-72
2023/07/29 10:38:16;;;;;;;10.13;9.52;;;;;;;;;;4985430;28;20049;-72
2023/07/29 10:40:47;;;;;;;9.60;9.00;;;;;;;;;;4966964;28;20113;-72
2023/07/29 10:43:19;;;;;;;10.27;9.68;;;;;;;;;;4948244;28;20027;-72
2023/07/29 10:45:45;;;;;;;10.20;9.48;;;;;;;;;;4958654;28;20041;-72
2023/07/29 10:48:32;;;;;;;10.50;9.90;;;;;;;;;;4964914;28;20035;-73
2023/07/29 10:51:25;;;;;;;10.70;10.00;;;;;;;;;;4947403;28;20125;-73
2023/07/29 10:53:56;;;;;;;10.75;9.95;;;;;;;;;;4978481;28;20062;-73
2023/07/29 10:56:34;;;;;;;9.88;9.25;;;;;;;;;;4978483;28;20065;-74
2023/07/29 10:59:12;;;;;;;9.83;9.10;;;;;;;;;;4977827;28;20837;-74
2023/07/29 11:01:45;;;;;;;9.55;8.95;;;;;;;;;;4982884;28;22567;-74
2023/07/29 11:04:20;;;;;;;9.43;8.82;;;;;;;;;;4977576;28;20490;-74
2023/07/29 11:07:07;;;;;;;9.40;8.80;;;;;;;;;;4977511;28;20038;-74
2023/07/29 11:09:51;;;;;;;9.75;9.15;;;;;;;;;;4975554;28;20045;-74
2023/07/29 11:12:42;;;;;;;9.43;8.65;;;;;;;;;;4963606;28;20203;-74
2023/07/29 11:15:11;;;;;;;9.70;9.10;;;;;;;;;;4976922;28;20720;-74
2023/07/29 11:17:41;;;;;;;9.48;8.68;;;;;;;;;;4987069;28;20118;-74
2023/07/29 11:20:08;;;;;;;9.57;8.70;;;;;;;;;;4980533;28;20166;-74
2023/07/29 11:22:33;;;;;;;9.57;8.90;;;;;;;;;;4976468;28;20129;-74
2023/07/29 11:25:00;;;;;;;9.02;8.52;;;;;;;;;;4982275;28;20051;-74
2023/07/29 11:27:26;;;;;;;9.20;8.40;;;;;;;;;;4977792;28;20049;-74
2023/07/29 11:30:05;;;;;;;9.20;8.60;;;;;;;;;;4977238;28;20038;-74
2023/07/29 11:32:32;;;;;;;9.35;8.68;;;;;;;;;;4964673;28;21240;-74
2023/07/29 11:35:05;;;;;;;9.25;8.65;;;;;;;;;;4980330;28;20038;-74
2023/07/29 11:37:32;;;;;;;9.20;8.70;;;;;;;;;;4961730;28;20046;-74
2023/07/29 11:39:58;;;;;;;9.02;8.38;;;;;;;;;;4979333;28;20053;-74
2023/07/29 11:42:24;;;;;;;9.57;8.98;;;;;;;;;;4981077;28;20038;-74
2023/07/29 11:44:49;;;;;;;9.32;8.73;;;;;;;;;;4986343;28;20942;-76
2023/07/29 11:47:15;;;;;;;9.80;9.20;;;;;;;;;;4979293;28;20042;-72
2023/07/29 11:49:41;;;;;;;10.15;9.55;;;;;;;;;;4981058;28;20038;-72
2023/07/29 11:52:08;;;;;;;9.68;9.18;;;;;;;;;;4981177;28;20038;-72
2023/07/29 11:54:38;;;;;;;9.90;9.30;;;;;;;;;;4983069;28;20038;-72
2023/07/29 11:57:08;;;;;;;10.20;9.40;;;;;;;;;;4985833;28;20042;-73
2023/07/29 11:59:35;;;;;;;9.82;9.13;;;;;;;;;;4981739;28;21448;-72
2023/07/29 12:02:04;;;;;;;9.68;9.10;;;;;;;;;;4986062;28;20034;-72
2023/07/29 12:04:30;;;;;;;9.38;8.77;;;;;;;;;;4969716;28;20049;-74
2023/07/29 12:06:56;;;;;;;9.68;8.98;;;;;;;;;;4983235;28;20038;-75
2023/07/29 12:09:22;;;;;;;9.70;9.10;;;;;;;;;;4984718;28;20044;-72
2023/07/29 12:11:48;;;;;;;9.50;8.90;;;;;;;;;;4984120;28;20074;-73
2023/07/29 12:14:16;;;;;;;9.80;9.20;;;;;;;;;;4983800;28;20034;-73
2023/07/29 12:16:45;;;;;;;10.73;9.80;;;;;;;;;;4984967;28;20623;-73
2023/07/29 12:19:14;;;;;;;9.65;9.05;;;;;;;;;;4985206;28;20137;-74
2023/07/29 12:21:44;;;;;;;9.50;8.90;;;;;;;;;;4986143;28;20112;-74
2023/07/29 12:24:11;;;;;;;10.23;9.45;;;;;;;;;;4985557;28;21012;-73
2023/07/29 12:26:37;;;;;;;9.65;9.00;;;;;;;;;;4985961;28;20517;-74
2023/07/29 12:29:13;;;;;;;10.02;9.32;;;;;;;;;;4986182;28;20042;-73
2023/07/29 12:31:39;;;;;;;9.93;9.32;;;;;;;;;;4982085;28;20500;-73
2023/07/29 12:34:05;;;;;;;9.80;9.20;;;;;;;;;;4982797;28;20158;-73
2023/07/29 12:36:50;;;;;;;9.70;9.10;;;;;;;;;;4987705;28;20057;-74
2023/07/29 12:39:21;;;;;;;10.18;9.48;;;;;;;;;;4984362;28;20046;-73
2023/07/29 12:41:52;;;;;;;10.10;9.40;;;;;;;;;;4996130;28;20112;-73
2023/07/29 12:44:18;;;;;;;10.55;9.75;;;;;;;;;;4987784;28;20038;-74
2023/07/29 12:46:44;;;;;;;10.05;9.30;;;;;;;;;;4984658;28;20041;-74
2023/07/29 12:49:10;;;;;;;10.20;9.40;;;;;;;;;;4984904;28;20485;-74
2023/07/29 12:51:37;;;;;;;10.95;10.23;;;;;;;;;;4985978;28;20045;-74
2023/07/29 12:54:05;;;;;;;10.05;9.45;;;;;;;;;;4985195;28;20042;-74
2023/07/29 12:56:32;;;;;;;10.30;9.50;;;;;;;;;;4986096;28;20034;-74
2023/07/29 12:59:00;;;;;;;9.73;9.13;;;;;;;;;;4986564;28;20121;-74
2023/07/29 13:01:27;;;;;;;9.77;9.18;;;;;;;;;;4985708;28;20529;-74
2023/07/29 13:03:53;;;;;;;10.60;9.80;;;;;;;;;;4984171;28;20034;-74
2023/07/29 13:06:19;;;;;;;10.32;9.52;;;;;;;;;;4982715;28;20595;-74
2023/07/29 13:08:45;;;;;;;9.55;8.95;;;;;;;;;;4985701;28;20069;-73
2023/07/29 13:11:11;;;;;;;10.05;9.45;;;;;;;;;;4986170;28;20065;-74
2023/07/29 13:13:37;;;;;;;10.20;9.50;;;;;;;;;;4985034;28;20073;-73
2023/07/29 13:16:02;;;;;;;9.98;9.38;;;;;;;;;;4986763;28;20387;-73
2023/07/29 13:18:28;;;;;;;9.65;9.05;;;;;;;;;;4987748;28;20038;-73
2023/07/29 13:20:55;;;;;;;10.02;9.43;;;;;;;;;;4984864;28;20034;-75
2023/07/29 13:23:21;;;;;;;9.65;9.05;;;;;;;;;;4987481;28;20039;-74
2023/07/29 13:25:47;;;;;;;10.57;9.98;;;;;;;;;;4984740;28;20041;-73
2023/07/29 13:28:13;;;;;;;10.20;9.50;;;;;;;;;;4984525;28;20034;-73
2023/07/29 13:30:42;;;;;;;9.68;9.07;;;;;;;;;;4978626;28;20049;-74
2023/07/29 13:33:07;;;;;;;;;;;;;;;;;;4980733;28;20026;-74
2023/07/29 13:35:33;;;;;;;9.40;8.80;;;;;;;;;;4977958;28;19924;-74
2023/07/29 13:38:00;;;;;;;9.38;8.68;;;;;;;;;;4978595;28;20026;-74
2023/07/29 13:40:26;;;;;;;9.38;8.68;;;;;;;;;;4975330;28;20054;-74
2023/07/29 13:42:52;;;;;;;9.43;8.45;;;;;;;;;;4977744;28;20030;-74
2023/07/29 13:45:18;;;;;;;9.38;8.68;;;;;;;;;;4984804;28;20057;-74
2023/07/29 13:47:43;;;;;;;9.05;8.55;;;;;;;;;;4983165;28;20041;-74
2023/07/29 13:50:09;;;;;;;9.27;8.68;;;;;;;;;;4982950;28;20510;-74
2023/07/29 13:52:36;;;;;;;9.70;8.90;;;;;;;;;;4984939;28;20691;-74
2023/07/29 13:55:02;;;;;;;9.30;8.70;;;;;;;;;;4985219;28;20116;-74
2023/07/29 13:57:28;;;;;;;9.48;8.70;;;;;;;;;;4982566;28;20042;-74
2023/07/29 13:59:54;;;;;;;9.45;8.85;;;;;;;;;;4984244;28;20041;-74
2023/07/29 14:02:19;;;;;;;9.13;8.60;;;;;;;;;;4984646;28;20050;-74
2023/07/29 14:04:45;;;;;;;8.93;8.43;;;;;;;;;;4983731;28;20045;-74
2023/07/29 14:07:11;;;;;;;9.57;8.85;;;;;;;;;;4980046;28;20030;-74
2023/07/29 14:09:38;;;;;;;9.80;9.20;;;;;;;;;;4980487;28;20049;-74
2023/07/29 14:12:04;;;;;;;9.05;8.55;;;;;;;;;;4984653;28;20519;-74
2023/07/29 14:14:30;;;;;;;9.18;8.57;;;;;;;;;;4984350;28;20049;-74
2023/07/29 14:16:56;;;;;;;9.80;9.20;;;;;;;;;;4984798;28;20041;-74
2023/07/29 14:19:23;;;;;;;9.45;8.85;;;;;;;;;;4982078;28;20042;-74
2023/07/29 14:21:48;;;;;;;9.20;8.60;;;;;;;;;;4984375;28;20498;-74
2023/07/29 14:24:15;;;;;;;9.52;8.93;;;;;;;;;;4984847;28;20037;-74
2023/07/29 14:26:41;;;;;;;9.50;8.90;;;;;;;;;;4982930;28;20026;-74
2023/07/29 14:29:07;;;;;;;9.25;8.65;;;;;;;;;;4982699;28;20069;-74
2023/07/29 14:31:32;;;;;;;9.32;8.70;;;;;;;;;;4981229;28;20092;-74